sensor_id;sensor_type;location;lat;lon;timestamp;P1;durP1;ratioP1;P2;durP2;ratioP2
8592;SDS011;4334;49.982;8.398;2023-02-28T00:01:05;3.13;;;2.10;;
8592;SDS011;4334;49.982;8.398;2023-02-28T00:03:32;4.27;;;2.30;;
8592;SDS011;4334;49.982;8.398;2023-02-28T00:06:01;3.73;;;2.40;;
8592;SDS011;4334;49.982;8.398;2023-02-28T00:08:28;4.00;;;2.50;;
8592;SDS011;4334;49.982;8.398;2023-02-28T00:10:55;4.20;;;2.40;;
8592;SDS011;4334;49.982;8.398;2023-02-28T00:13:23;3.63;;;2.10;;
8592;SDS011;4334;49.982;8.398;2023-02-28T00:15:58;2.77;;;2.20;;
8592;SDS011;4334;49.982;8.398;2023-02-28T00:18:26;5.00;;;2.37;;
8592;SDS011;4334;49.982;8.398;2023-02-28T00:20:53;3.67;;;2.60;;
8592;SDS011;4334;49.982;8.398;2023-02-28T00:23:19;2.87;;;2.40;;
8592;SDS011;4334;49.982;8.398;2023-02-28T00:25:46;3.53;;;2.50;;
8592;SDS011;4334;49.982;8.398;2023-02-28T00:28:13;2.70;;;2.40;;
8592;SDS011;4334;49.982;8.398;2023-02-28T00:30:41;2.73;;;2.47;;
8592;SDS011;4334;49.982;8.398;2023-02-28T00:33:08;2.93;;;2.53;;
8592;SDS011;4334;49.982;8.398;2023-02-28T00:35:35;5.23;;;2.60;;
8592;SDS011;4334;49.982;8.398;2023-02-28T00:38:02;3.60;;;2.27;;
8592;SDS011;4334;49.982;8.398;2023-02-28T00:40:28;3.40;;;2.57;;
8592;SDS011;4334;49.982;8.398;2023-02-28T00:42:55;3.37;;;2.33;;
8592;SDS011;4334;49.982;8.398;2023-02-28T00:45:22;3.80;;;2.87;;
8592;SDS011;4334;49.982;8.398;2023-02-28T00:47:50;3.73;;;2.70;;
8592;SDS011;4334;49.982;8.398;2023-02-28T00:50:17;3.40;;;2.90;;
8592;SDS011;4334;49.982;8.398;2023-02-28T00:52:45;4.70;;;2.60;;
8592;SDS011;4334;49.982;8.398;2023-02-28T00:55:11;2.60;;;2.40;;
8592;SDS011;4334;49.982;8.398;2023-02-28T00:57:38;3.43;;;2.60;;
8592;SDS011;4334;49.982;8.398;2023-02-28T01:00:06;3.10;;;2.80;;
8592;SDS011;4334;49.982;8.398;2023-02-28T01:02:34;4.30;;;3.00;;
8592;SDS011;4334;49.982;8.398;2023-02-28T01:05:02;5.83;;;2.83;;
8592;SDS011;4334;49.982;8.398;2023-02-28T01:07:29;5.43;;;2.70;;
8592;SDS011;4334;49.982;8.398;2023-02-28T01:09:56;5.00;;;3.07;;
8592;SDS011;4334;49.982;8.398;2023-02-28T01:12:23;3.67;;;3.03;;
8592;SDS011;4334;49.982;8.398;2023-02-28T01:14:49;3.57;;;3.03;;
8592;SDS011;4334;49.982;8.398;2023-02-28T01:17:16;3.40;;;3.00;;
8592;SDS011;4334;49.982;8.398;2023-02-28T01:19:43;4.00;;;3.20;;
8592;SDS011;4334;49.982;8.398;2023-02-28T01:22:11;5.63;;;3.63;;
8592;SDS011;4334;49.982;8.398;2023-02-28T01:24:38;4.37;;;3.60;;
8592;SDS011;4334;49.982;8.398;2023-02-28T01:27:04;4.67;;;3.57;;
8592;SDS011;4334;49.982;8.398;2023-02-28T01:29:31;6.67;;;3.73;;
8592;SDS011;4334;49.982;8.398;2023-02-28T01:31:58;5.27;;;3.40;;
8592;SDS011;4334;49.982;8.398;2023-02-28T01:34:25;5.10;;;3.53;;
8592;SDS011;4334;49.982;8.398;2023-02-28T01:36:52;4.93;;;4.00;;
8592;SDS011;4334;49.982;8.398;2023-02-28T01:39:20;5.60;;;3.93;;
8592;SDS011;4334;49.982;8.398;2023-02-28T01:41:47;5.43;;;3.80;;
8592;SDS011;4334;49.982;8.398;2023-02-28T01:47:17;8.23;;;4.20;;
8592;SDS011;4334;49.982;8.398;2023-02-28T01:49:44;7.33;;;4.07;;
8592;SDS011;4334;49.982;8.398;2023-02-28T01:52:11;5.57;;;4.20;;
8592;SDS011;4334;49.982;8.398;2023-02-28T01:54:44;7.67;;;4.67;;
8592;SDS011;4334;49.982;8.398;2023-02-28T01:57:16;6.63;;;4.53;;
8592;SDS011;4334;49.982;8.398;2023-02-28T01:59:48;5.63;;;4.43;;
8592;SDS011;4334;49.982;8.398;2023-02-28T02:02:19;6.93;;;4.50;;
8592;SDS011;4334;49.982;8.398;2023-02-28T02:04:50;7.73;;;4.60;;
8592;SDS011;4334;49.982;8.398;2023-02-28T02:07:19;6.83;;;4.90;;
8592;SDS011;4334;49.982;8.398;2023-02-28T02:09:48;6.50;;;4.60;;
8592;SDS011;4334;49.982;8.398;2023-02-28T02:12:25;7.03;;;4.40;;
8592;SDS011;4334;49.982;8.398;2023-02-28T02:15:07;7.17;;;4.67;;
8592;SDS011;4334;49.982;8.398;2023-02-28T02:17:38;8.17;;;4.43;;
8592;SDS011;4334;49.982;8.398;2023-02-28T02:29:10;5.77;;;4.53;;
8592;SDS011;4334;49.982;8.398;2023-02-28T02:32:00;8.13;;;4.80;;
8592;SDS011;4334;49.982;8.398;2023-02-28T02:34:42;6.43;;;4.60;;
8592;SDS011;4334;49.982;8.398;2023-02-28T02:37:20;7.87;;;4.57;;
8592;SDS011;4334;49.982;8.398;2023-02-28T02:39:58;6.93;;;4.70;;
8592;SDS011;4334;49.982;8.398;2023-02-28T02:42:31;7.10;;;5.43;;
8592;SDS011;4334;49.982;8.398;2023-02-28T02:45:05;6.83;;;5.00;;
8592;SDS011;4334;49.982;8.398;2023-02-28T02:47:35;8.80;;;4.90;;
8592;SDS011;4334;49.982;8.398;2023-02-28T02:50:04;10.23;;;5.30;;
8592;SDS011;4334;49.982;8.398;2023-02-28T02:52:36;7.27;;;5.20;;
8592;SDS011;4334;49.982;8.398;2023-02-28T02:55:07;9.23;;;5.33;;
8592;SDS011;4334;49.982;8.398;2023-02-28T02:57:38;7.40;;;5.07;;
8592;SDS011;4334;49.982;8.398;2023-02-28T03:00:10;7.07;;;4.60;;
8592;SDS011;4334;49.982;8.398;2023-02-28T03:02:38;6.53;;;4.90;;
8592;SDS011;4334;49.982;8.398;2023-02-28T03:05:13;7.63;;;5.27;;
8592;SDS011;4334;49.982;8.398;2023-02-28T03:07:44;9.23;;;5.40;;
8592;SDS011;4334;49.982;8.398;2023-02-28T03:10:27;7.13;;;5.10;;
8592;SDS011;4334;49.982;8.398;2023-02-28T03:12:59;8.77;;;5.43;;
8592;SDS011;4334;49.982;8.398;2023-02-28T03:15:32;7.37;;;5.33;;
8592;SDS011;4334;49.982;8.398;2023-02-28T03:18:09;7.53;;;5.13;;
8592;SDS011;4334;49.982;8.398;2023-02-28T03:20:45;7.63;;;5.57;;
8592;SDS011;4334;49.982;8.398;2023-02-28T03:23:21;7.80;;;5.00;;
8592;SDS011;4334;49.982;8.398;2023-02-28T03:25:56;6.73;;;4.77;;
8592;SDS011;4334;49.982;8.398;2023-02-28T03:28:31;6.47;;;4.97;;
8592;SDS011;4334;49.982;8.398;2023-02-28T03:31:04;6.70;;;5.10;;
8592;SDS011;4334;49.982;8.398;2023-02-28T03:33:38;6.83;;;5.07;;
8592;SDS011;4334;49.982;8.398;2023-02-28T03:36:10;7.30;;;5.30;;
8592;SDS011;4334;49.982;8.398;2023-02-28T03:38:43;6.70;;;4.97;;
8592;SDS011;4334;49.982;8.398;2023-02-28T03:41:15;7.90;;;5.83;;
8592;SDS011;4334;49.982;8.398;2023-02-28T03:43:46;8.90;;;5.40;;
8592;SDS011;4334;49.982;8.398;2023-02-28T03:46:18;9.03;;;5.80;;
8592;SDS011;4334;49.982;8.398;2023-02-28T03:48:48;9.07;;;5.60;;
8592;SDS011;4334;49.982;8.398;2023-02-28T03:51:21;9.17;;;5.73;;
8592;SDS011;4334;49.982;8.398;2023-02-28T03:53:51;7.00;;;5.30;;
8592;SDS011;4334;49.982;8.398;2023-02-28T03:56:20;8.20;;;5.37;;
8592;SDS011;4334;49.982;8.398;2023-02-28T03:58:51;9.07;;;5.57;;
8592;SDS011;4334;49.982;8.398;2023-02-28T04:01:24;8.73;;;5.13;;
8592;SDS011;4334;49.982;8.398;2023-02-28T04:03:56;10.10;;;5.93;;
8592;SDS011;4334;49.982;8.398;2023-02-28T04:06:24;9.53;;;5.87;;
8592;SDS011;4334;49.982;8.398;2023-02-28T04:08:52;7.63;;;5.57;;
8592;SDS011;4334;49.982;8.398;2023-02-28T04:11:21;8.77;;;5.83;;
8592;SDS011;4334;49.982;8.398;2023-02-28T04:13:49;10.60;;;6.47;;
8592;SDS011;4334;49.982;8.398;2023-02-28T04:16:16;10.30;;;6.53;;
8592;SDS011;4334;49.982;8.398;2023-02-28T04:18:43;11.87;;;6.07;;
8592;SDS011;4334;49.982;8.398;2023-02-28T04:21:11;9.87;;;6.30;;
8592;SDS011;4334;49.982;8.398;2023-02-28T04:23:39;11.60;;;6.37;;
8592;SDS011;4334;49.982;8.398;2023-02-28T04:26:06;9.40;;;6.10;;
8592;SDS011;4334;49.982;8.398;2023-02-28T04:28:33;10.37;;;6.47;;
8592;SDS011;4334;49.982;8.398;2023-02-28T04:31:02;10.70;;;6.47;;
8592;SDS011;4334;49.982;8.398;2023-02-28T04:33:31;9.03;;;6.53;;
8592;SDS011;4334;49.982;8.398;2023-02-28T04:35:59;9.83;;;6.27;;
8592;SDS011;4334;49.982;8.398;2023-02-28T04:38:26;9.43;;;6.60;;
8592;SDS011;4334;49.982;8.398;2023-02-28T04:40:56;11.47;;;7.47;;
8592;SDS011;4334;49.982;8.398;2023-02-28T04:43:23;11.00;;;7.60;;
8592;SDS011;4334;49.982;8.398;2023-02-28T04:45:50;11.63;;;7.03;;
8592;SDS011;4334;49.982;8.398;2023-02-28T04:48:17;11.03;;;6.97;;
8592;SDS011;4334;49.982;8.398;2023-02-28T04:50:43;9.73;;;6.50;;
8592;SDS011;4334;49.982;8.398;2023-02-28T04:53:10;10.87;;;6.87;;
8592;SDS011;4334;49.982;8.398;2023-02-28T04:55:37;9.00;;;6.10;;
8592;SDS011;4334;49.982;8.398;2023-02-28T04:58:06;9.00;;;6.20;;
8592;SDS011;4334;49.982;8.398;2023-02-28T05:00:33;10.47;;;6.27;;
8592;SDS011;4334;49.982;8.398;2023-02-28T05:03:00;9.20;;;6.30;;
8592;SDS011;4334;49.982;8.398;2023-02-28T05:05:27;7.47;;;5.20;;
8592;SDS011;4334;49.982;8.398;2023-02-28T05:07:54;7.30;;;5.47;;
8592;SDS011;4334;49.982;8.398;2023-02-28T05:10:21;8.97;;;5.30;;
8592;SDS011;4334;49.982;8.398;2023-02-28T05:12:48;10.60;;;5.37;;
8592;SDS011;4334;49.982;8.398;2023-02-28T05:15:16;6.77;;;5.17;;
8592;SDS011;4334;49.982;8.398;2023-02-28T05:17:43;7.13;;;5.23;;
8592;SDS011;4334;49.982;8.398;2023-02-28T05:20:10;5.97;;;4.70;;
8592;SDS011;4334;49.982;8.398;2023-02-28T05:22:38;7.07;;;4.87;;
8592;SDS011;4334;49.982;8.398;2023-02-28T05:25:05;7.43;;;4.43;;
8592;SDS011;4334;49.982;8.398;2023-02-28T05:27:36;7.17;;;4.60;;
8592;SDS011;4334;49.982;8.398;2023-02-28T05:30:03;6.30;;;4.47;;
8592;SDS011;4334;49.982;8.398;2023-02-28T05:32:32;6.03;;;4.50;;
8592;SDS011;4334;49.982;8.398;2023-02-28T05:34:59;6.80;;;4.60;;
8592;SDS011;4334;49.982;8.398;2023-02-28T05:37:26;7.77;;;4.73;;
8592;SDS011;4334;49.982;8.398;2023-02-28T05:39:52;9.70;;;4.67;;
8592;SDS011;4334;49.982;8.398;2023-02-28T05:42:19;8.30;;;4.40;;
8592;SDS011;4334;49.982;8.398;2023-02-28T05:44:46;6.17;;;4.40;;
8592;SDS011;4334;49.982;8.398;2023-02-28T05:47:13;7.40;;;4.40;;
8592;SDS011;4334;49.982;8.398;2023-02-28T05:49:41;6.00;;;4.47;;
8592;SDS011;4334;49.982;8.398;2023-02-28T05:52:08;6.07;;;4.30;;
8592;SDS011;4334;49.982;8.398;2023-02-28T05:54:35;6.40;;;4.90;;
8592;SDS011;4334;49.982;8.398;2023-02-28T05:57:02;5.77;;;4.40;;
8592;SDS011;4334;49.982;8.398;2023-02-28T05:59:29;6.33;;;4.37;;
8592;SDS011;4334;49.982;8.398;2023-02-28T06:01:55;5.17;;;4.40;;
8592;SDS011;4334;49.982;8.398;2023-02-28T06:04:22;5.80;;;4.57;;
8592;SDS011;4334;49.982;8.398;2023-02-28T06:06:50;8.83;;;4.57;;
8592;SDS011;4334;49.982;8.398;2023-02-28T06:09:18;7.07;;;4.70;;
8592;SDS011;4334;49.982;8.398;2023-02-28T06:11:45;6.30;;;4.40;;
8592;SDS011;4334;49.982;8.398;2023-02-28T06:14:13;6.57;;;4.10;;
8592;SDS011;4334;49.982;8.398;2023-02-28T06:16:41;6.83;;;4.33;;
8592;SDS011;4334;49.982;8.398;2023-02-28T06:19:09;6.10;;;4.30;;
8592;SDS011;4334;49.982;8.398;2023-02-28T06:21:36;6.93;;;3.73;;
8592;SDS011;4334;49.982;8.398;2023-02-28T06:24:05;6.67;;;4.10;;
8592;SDS011;4334;49.982;8.398;2023-02-28T06:26:33;6.07;;;4.23;;
8592;SDS011;4334;49.982;8.398;2023-02-28T06:29:00;5.17;;;4.13;;
8592;SDS011;4334;49.982;8.398;2023-02-28T06:32:56;5.77;;;3.70;;
8592;SDS011;4334;49.982;8.398;2023-02-28T06:35:23;7.57;;;4.10;;
8592;SDS011;4334;49.982;8.398;2023-02-28T06:37:50;7.03;;;4.07;;
8592;SDS011;4334;49.982;8.398;2023-02-28T06:40:17;6.43;;;4.23;;
8592;SDS011;4334;49.982;8.398;2023-02-28T06:42:46;14.93;;;7.10;;
8592;SDS011;4334;49.982;8.398;2023-02-28T06:45:13;10.43;;;5.20;;
8592;SDS011;4334;49.982;8.398;2023-02-28T06:47:40;8.10;;;4.20;;
8592;SDS011;4334;49.982;8.398;2023-02-28T06:50:09;7.73;;;4.37;;
8592;SDS011;4334;49.982;8.398;2023-02-28T06:52:38;5.70;;;3.90;;
8592;SDS011;4334;49.982;8.398;2023-02-28T06:55:05;6.23;;;3.73;;
8592;SDS011;4334;49.982;8.398;2023-02-28T06:57:34;7.93;;;4.13;;
8592;SDS011;4334;49.982;8.398;2023-02-28T07:00:04;5.50;;;3.90;;
8592;SDS011;4334;49.982;8.398;2023-02-28T07:02:33;7.97;;;4.00;;
8592;SDS011;4334;49.982;8.398;2023-02-28T07:04:59;5.57;;;3.80;;
8592;SDS011;4334;49.982;8.398;2023-02-28T07:07:28;6.50;;;3.30;;
8592;SDS011;4334;49.982;8.398;2023-02-28T07:09:54;6.13;;;3.67;;
8592;SDS011;4334;49.982;8.398;2023-02-28T07:12:21;4.93;;;3.67;;
8592;SDS011;4334;49.982;8.398;2023-02-28T07:14:48;5.00;;;3.57;;
8592;SDS011;4334;49.982;8.398;2023-02-28T07:17:15;7.10;;;3.70;;
8592;SDS011;4334;49.982;8.398;2023-02-28T07:19:41;4.47;;;3.57;;
8592;SDS011;4334;49.982;8.398;2023-02-28T07:22:08;5.00;;;3.90;;
8592;SDS011;4334;49.982;8.398;2023-02-28T07:24:36;4.30;;;3.43;;
8592;SDS011;4334;49.982;8.398;2023-02-28T07:27:03;7.07;;;3.77;;
8592;SDS011;4334;49.982;8.398;2023-02-28T07:29:30;5.30;;;3.67;;
8592;SDS011;4334;49.982;8.398;2023-02-28T07:31:56;5.13;;;3.33;;
8592;SDS011;4334;49.982;8.398;2023-02-28T07:34:23;5.33;;;3.83;;
8592;SDS011;4334;49.982;8.398;2023-02-28T07:36:52;7.60;;;3.73;;
8592;SDS011;4334;49.982;8.398;2023-02-28T07:39:19;4.57;;;3.60;;
8592;SDS011;4334;49.982;8.398;2023-02-28T07:41:48;5.10;;;3.50;;
8592;SDS011;4334;49.982;8.398;2023-02-28T07:44:15;3.97;;;3.47;;
8592;SDS011;4334;49.982;8.398;2023-02-28T07:46:41;4.53;;;3.40;;
8592;SDS011;4334;49.982;8.398;2023-02-28T07:49:08;5.73;;;3.07;;
8592;SDS011;4334;49.982;8.398;2023-02-28T07:51:35;4.80;;;3.73;;
8592;SDS011;4334;49.982;8.398;2023-02-28T07:54:02;5.87;;;3.80;;
8592;SDS011;4334;49.982;8.398;2023-02-28T07:56:29;4.33;;;3.23;;
8592;SDS011;4334;49.982;8.398;2023-02-28T07:58:57;4.87;;;3.67;;
8592;SDS011;4334;49.982;8.398;2023-02-28T08:01:23;6.00;;;3.57;;
8592;SDS011;4334;49.982;8.398;2023-02-28T08:03:50;5.73;;;4.23;;
8592;SDS011;4334;49.982;8.398;2023-02-28T08:06:18;4.20;;;3.43;;
8592;SDS011;4334;49.982;8.398;2023-02-28T08:08:47;4.93;;;3.90;;
8592;SDS011;4334;49.982;8.398;2023-02-28T08:11:15;5.10;;;3.30;;
8592;SDS011;4334;49.982;8.398;2023-02-28T08:13:42;5.57;;;3.77;;
8592;SDS011;4334;49.982;8.398;2023-02-28T08:16:10;6.33;;;3.60;;
8592;SDS011;4334;49.982;8.398;2023-02-28T08:18:40;6.37;;;4.10;;
8592;SDS011;4334;49.982;8.398;2023-02-28T08:21:07;5.30;;;3.70;;
8592;SDS011;4334;49.982;8.398;2023-02-28T08:23:34;4.60;;;3.43;;
8592;SDS011;4334;49.982;8.398;2023-02-28T08:26:01;5.00;;;3.57;;
8592;SDS011;4334;49.982;8.398;2023-02-28T08:28:28;6.27;;;3.80;;
8592;SDS011;4334;49.982;8.398;2023-02-28T08:30:54;5.93;;;3.97;;
8592;SDS011;4334;49.982;8.398;2023-02-28T08:33:23;5.53;;;3.80;;
8592;SDS011;4334;49.982;8.398;2023-02-28T08:35:52;6.97;;;3.83;;
8592;SDS011;4334;49.982;8.398;2023-02-28T08:38:20;5.50;;;3.97;;
8592;SDS011;4334;49.982;8.398;2023-02-28T08:40:47;5.47;;;3.93;;
8592;SDS011;4334;49.982;8.398;2023-02-28T08:43:13;9.27;;;4.20;;
8592;SDS011;4334;49.982;8.398;2023-02-28T08:45:40;5.37;;;3.83;;
8592;SDS011;4334;49.982;8.398;2023-02-28T08:48:07;6.03;;;3.57;;
8592;SDS011;4334;49.982;8.398;2023-02-28T08:50:35;6.93;;;3.90;;
8592;SDS011;4334;49.982;8.398;2023-02-28T08:53:02;6.17;;;3.77;;
8592;SDS011;4334;49.982;8.398;2023-02-28T08:55:29;4.37;;;3.53;;
8592;SDS011;4334;49.982;8.398;2023-02-28T08:57:55;4.73;;;3.50;;
8592;SDS011;4334;49.982;8.398;2023-02-28T09:00:23;5.23;;;3.50;;
8592;SDS011;4334;49.982;8.398;2023-02-28T09:02:50;5.73;;;3.63;;
8592;SDS011;4334;49.982;8.398;2023-02-28T09:05:16;4.77;;;3.70;;
8592;SDS011;4334;49.982;8.398;2023-02-28T09:07:44;4.33;;;3.33;;
8592;SDS011;4334;49.982;8.398;2023-02-28T09:10:11;4.63;;;3.33;;
8592;SDS011;4334;49.982;8.398;2023-02-28T09:12:38;7.57;;;3.50;;
8592;SDS011;4334;49.982;8.398;2023-02-28T09:15:05;4.60;;;3.27;;
8592;SDS011;4334;49.982;8.398;2023-02-28T09:17:33;4.03;;;3.03;;
8592;SDS011;4334;49.982;8.398;2023-02-28T09:20:00;4.87;;;3.50;;
8592;SDS011;4334;49.982;8.398;2023-02-28T09:22:26;6.90;;;3.30;;
8592;SDS011;4334;49.982;8.398;2023-02-28T09:24:54;4.60;;;3.20;;
8592;SDS011;4334;49.982;8.398;2023-02-28T09:27:21;5.40;;;3.07;;
8592;SDS011;4334;49.982;8.398;2023-02-28T09:29:48;4.23;;;3.20;;
8592;SDS011;4334;49.982;8.398;2023-02-28T09:32:15;4.40;;;3.30;;
8592;SDS011;4334;49.982;8.398;2023-02-28T09:34:42;6.23;;;3.20;;
8592;SDS011;4334;49.982;8.398;2023-02-28T09:37:09;4.20;;;3.07;;
8592;SDS011;4334;49.982;8.398;2023-02-28T09:39:36;5.13;;;3.23;;
8592;SDS011;4334;49.982;8.398;2023-02-28T09:42:04;4.80;;;3.10;;
8592;SDS011;4334;49.982;8.398;2023-02-28T09:44:35;6.17;;;3.40;;
8592;SDS011;4334;49.982;8.398;2023-02-28T09:47:05;5.40;;;4.00;;
8592;SDS011;4334;49.982;8.398;2023-02-28T09:49:38;4.10;;;3.17;;
8592;SDS011;4334;49.982;8.398;2023-02-28T09:52:09;4.27;;;3.30;;
8592;SDS011;4334;49.982;8.398;2023-02-28T09:54:38;4.00;;;3.40;;
8592;SDS011;4334;49.982;8.398;2023-02-28T09:57:08;4.63;;;3.63;;
8592;SDS011;4334;49.982;8.398;2023-02-28T09:59:47;4.27;;;3.33;;
8592;SDS011;4334;49.982;8.398;2023-02-28T10:02:32;4.90;;;3.40;;
8592;SDS011;4334;49.982;8.398;2023-02-28T10:05:24;8.57;;;3.70;;
8592;SDS011;4334;49.982;8.398;2023-02-28T10:08:05;4.37;;;3.30;;
8592;SDS011;4334;49.982;8.398;2023-02-28T10:10:39;5.37;;;3.40;;
8592;SDS011;4334;49.982;8.398;2023-02-28T10:13:14;4.10;;;3.00;;
8592;SDS011;4334;49.982;8.398;2023-02-28T10:15:46;5.27;;;3.83;;
8592;SDS011;4334;49.982;8.398;2023-02-28T10:18:19;4.53;;;3.53;;
8592;SDS011;4334;49.982;8.398;2023-02-28T10:20:49;5.07;;;3.77;;
8592;SDS011;4334;49.982;8.398;2023-02-28T10:23:19;5.10;;;3.23;;
8592;SDS011;4334;49.982;8.398;2023-02-28T10:25:50;4.43;;;3.63;;
8592;SDS011;4334;49.982;8.398;2023-02-28T10:28:24;4.90;;;3.70;;
8592;SDS011;4334;49.982;8.398;2023-02-28T10:30:52;5.63;;;3.77;;
8592;SDS011;4334;49.982;8.398;2023-02-28T10:33:22;5.83;;;3.80;;
8592;SDS011;4334;49.982;8.398;2023-02-28T10:35:51;5.30;;;3.80;;
8592;SDS011;4334;49.982;8.398;2023-02-28T10:38:19;4.50;;;3.80;;
8592;SDS011;4334;49.982;8.398;2023-02-28T10:40:47;6.30;;;4.13;;
8592;SDS011;4334;49.982;8.398;2023-02-28T10:43:18;4.87;;;3.57;;
8592;SDS011;4334;49.982;8.398;2023-02-28T10:46:02;5.03;;;3.83;;
8592;SDS011;4334;49.982;8.398;2023-02-28T10:48:36;7.03;;;4.00;;
8592;SDS011;4334;49.982;8.398;2023-02-28T10:51:05;4.57;;;3.70;;
8592;SDS011;4334;49.982;8.398;2023-02-28T10:53:35;5.70;;;3.80;;
8592;SDS011;4334;49.982;8.398;2023-02-28T10:56:06;4.93;;;3.60;;
8592;SDS011;4334;49.982;8.398;2023-02-28T10:58:46;6.50;;;3.70;;
8592;SDS011;4334;49.982;8.398;2023-02-28T11:01:17;5.50;;;3.80;;
8592;SDS011;4334;49.982;8.398;2023-02-28T11:03:46;4.90;;;3.60;;
8592;SDS011;4334;49.982;8.398;2023-02-28T11:06:14;4.23;;;3.60;;
8592;SDS011;4334;49.982;8.398;2023-02-28T11:08:47;5.07;;;3.90;;
8592;SDS011;4334;49.982;8.398;2023-02-28T11:11:16;5.13;;;3.90;;
8592;SDS011;4334;49.982;8.398;2023-02-28T11:13:43;5.70;;;3.80;;
8592;SDS011;4334;49.982;8.398;2023-02-28T11:16:13;4.10;;;3.40;;
8592;SDS011;4334;49.982;8.398;2023-02-28T11:18:43;5.80;;;3.47;;
8592;SDS011;4334;49.982;8.398;2023-02-28T11:21:18;4.37;;;3.60;;
8592;SDS011;4334;49.982;8.398;2023-02-28T11:23:48;4.27;;;3.50;;
8592;SDS011;4334;49.982;8.398;2023-02-28T11:26:18;7.03;;;3.70;;
8592;SDS011;4334;49.982;8.398;2023-02-28T11:29:03;4.80;;;3.90;;
8592;SDS011;4334;49.982;8.398;2023-02-28T11:31:37;5.03;;;3.70;;
8592;SDS011;4334;49.982;8.398;2023-02-28T11:34:20;5.30;;;3.90;;
8592;SDS011;4334;49.982;8.398;2023-02-28T11:36:50;4.27;;;3.40;;
8592;SDS011;4334;49.982;8.398;2023-02-28T11:39:19;6.10;;;3.60;;
8592;SDS011;4334;49.982;8.398;2023-02-28T11:41:54;3.90;;;3.50;;
8592;SDS011;4334;49.982;8.398;2023-02-28T11:44:38;4.57;;;3.60;;
8592;SDS011;4334;49.982;8.398;2023-02-28T11:47:12;5.07;;;3.57;;
8592;SDS011;4334;49.982;8.398;2023-02-28T11:49:47;6.40;;;3.97;;
8592;SDS011;4334;49.982;8.398;2023-02-28T11:52:26;5.13;;;3.50;;
8592;SDS011;4334;49.982;8.398;2023-02-28T11:55:06;5.80;;;3.60;;
8592;SDS011;4334;49.982;8.398;2023-02-28T11:57:47;4.47;;;3.77;;
8592;SDS011;4334;49.982;8.398;2023-02-28T12:00:37;4.83;;;3.67;;
8592;SDS011;4334;49.982;8.398;2023-02-28T12:03:16;4.30;;;3.33;;
8592;SDS011;4334;49.982;8.398;2023-02-28T12:05:56;7.10;;;4.30;;
8592;SDS011;4334;49.982;8.398;2023-02-28T12:08:35;5.07;;;3.80;;
8592;SDS011;4334;49.982;8.398;2023-02-28T12:11:15;6.13;;;3.50;;
8592;SDS011;4334;49.982;8.398;2023-02-28T12:13:54;8.53;;;4.20;;
8592;SDS011;4334;49.982;8.398;2023-02-28T12:16:36;6.43;;;4.30;;
8592;SDS011;4334;49.982;8.398;2023-02-28T12:19:16;4.47;;;3.67;;
8592;SDS011;4334;49.982;8.398;2023-02-28T12:21:59;5.10;;;3.87;;
8592;SDS011;4334;49.982;8.398;2023-02-28T12:27:41;4.47;;;3.70;;
8592;SDS011;4334;49.982;8.398;2023-02-28T12:30:13;6.60;;;3.73;;
8592;SDS011;4334;49.982;8.398;2023-02-28T12:32:44;5.17;;;3.80;;
8592;SDS011;4334;49.982;8.398;2023-02-28T12:35:15;5.20;;;3.80;;
8592;SDS011;4334;49.982;8.398;2023-02-28T12:37:47;4.20;;;3.70;;
8592;SDS011;4334;49.982;8.398;2023-02-28T12:40:19;5.47;;;4.30;;
8592;SDS011;4334;49.982;8.398;2023-02-28T12:42:49;6.50;;;4.10;;
8592;SDS011;4334;49.982;8.398;2023-02-28T12:45:18;4.73;;;3.83;;
8592;SDS011;4334;49.982;8.398;2023-02-28T12:47:48;7.33;;;4.07;;
8592;SDS011;4334;49.982;8.398;2023-02-28T12:50:20;5.40;;;4.07;;
8592;SDS011;4334;49.982;8.398;2023-02-28T12:52:51;6.13;;;3.93;;
8592;SDS011;4334;49.982;8.398;2023-02-28T12:55:23;7.73;;;4.00;;
8592;SDS011;4334;49.982;8.398;2023-02-28T12:57:57;7.50;;;4.10;;
8592;SDS011;4334;49.982;8.398;2023-02-28T13:00:32;6.07;;;4.10;;
8592;SDS011;4334;49.982;8.398;2023-02-28T13:03:07;5.10;;;4.03;;
8592;SDS011;4334;49.982;8.398;2023-02-28T13:08:52;6.37;;;4.07;;
8592;SDS011;4334;49.982;8.398;2023-02-28T13:11:31;8.13;;;4.30;;
8592;SDS011;4334;49.982;8.398;2023-02-28T13:14:04;5.03;;;3.80;;
8592;SDS011;4334;49.982;8.398;2023-02-28T13:19:17;6.13;;;4.67;;
8592;SDS011;4334;49.982;8.398;2023-02-28T13:21:46;6.60;;;4.67;;
8592;SDS011;4334;49.982;8.398;2023-02-28T13:27:12;5.73;;;4.80;;
8592;SDS011;4334;49.982;8.398;2023-02-28T13:29:57;7.13;;;4.17;;
8592;SDS011;4334;49.982;8.398;2023-02-28T13:38:25;6.63;;;4.80;;
8592;SDS011;4334;49.982;8.398;2023-02-28T13:44:15;6.00;;;4.73;;
8592;SDS011;4334;49.982;8.398;2023-02-28T13:49:47;5.00;;;4.47;;
8592;SDS011;4334;49.982;8.398;2023-02-28T13:52:16;9.50;;;4.93;;
8592;SDS011;4334;49.982;8.398;2023-02-28T13:54:56;6.30;;;4.90;;
8592;SDS011;4334;49.982;8.398;2023-02-28T13:57:42;8.03;;;5.00;;
8592;SDS011;4334;49.982;8.398;2023-02-28T14:00:27;7.57;;;4.87;;
8592;SDS011;4334;49.982;8.398;2023-02-28T14:03:04;6.90;;;4.90;;
8592;SDS011;4334;49.982;8.398;2023-02-28T14:05:44;7.73;;;5.17;;
8592;SDS011;4334;49.982;8.398;2023-02-28T14:08:13;6.27;;;4.83;;
8592;SDS011;4334;49.982;8.398;2023-02-28T14:10:43;6.07;;;4.90;;
8592;SDS011;4334;49.982;8.398;2023-02-28T14:16:11;5.07;;;4.40;;
8592;SDS011;4334;49.982;8.398;2023-02-28T14:18:41;6.67;;;4.80;;
8592;SDS011;4334;49.982;8.398;2023-02-28T14:21:19;6.93;;;4.80;;
8592;SDS011;4334;49.982;8.398;2023-02-28T14:27:12;5.80;;;5.10;;
8592;SDS011;4334;49.982;8.398;2023-02-28T14:29:59;8.00;;;5.10;;
8592;SDS011;4334;49.982;8.398;2023-02-28T14:32:43;6.40;;;5.00;;
8592;SDS011;4334;49.982;8.398;2023-02-28T14:35:28;8.53;;;5.40;;
8592;SDS011;4334;49.982;8.398;2023-02-28T14:38:05;9.27;;;5.43;;
8592;SDS011;4334;49.982;8.398;2023-02-28T14:40:39;6.77;;;5.20;;
8592;SDS011;4334;49.982;8.398;2023-02-28T14:43:18;7.30;;;5.23;;
8592;SDS011;4334;49.982;8.398;2023-02-28T14:45:49;7.80;;;5.10;;
8592;SDS011;4334;49.982;8.398;2023-02-28T14:48:18;9.67;;;5.30;;
8592;SDS011;4334;49.982;8.398;2023-02-28T14:50:50;7.83;;;4.70;;
8592;SDS011;4334;49.982;8.398;2023-02-28T14:53:19;7.73;;;5.17;;
8592;SDS011;4334;49.982;8.398;2023-02-28T14:55:50;6.13;;;4.77;;
8592;SDS011;4334;49.982;8.398;2023-02-28T14:58:21;7.57;;;5.10;;
8592;SDS011;4334;49.982;8.398;2023-02-28T15:00:50;6.50;;;4.83;;
8592;SDS011;4334;49.982;8.398;2023-02-28T15:03:21;7.00;;;4.80;;
8592;SDS011;4334;49.982;8.398;2023-02-28T15:05:52;7.50;;;4.97;;
8592;SDS011;4334;49.982;8.398;2023-02-28T15:08:20;5.93;;;4.87;;
8592;SDS011;4334;49.982;8.398;2023-02-28T15:10:50;7.37;;;4.87;;
8592;SDS011;4334;49.982;8.398;2023-02-28T15:13:19;5.70;;;4.70;;
8592;SDS011;4334;49.982;8.398;2023-02-28T15:15:47;7.20;;;5.20;;
8592;SDS011;4334;49.982;8.398;2023-02-28T15:18:23;6.30;;;4.80;;
8592;SDS011;4334;49.982;8.398;2023-02-28T15:20:56;8.83;;;5.53;;
8592;SDS011;4334;49.982;8.398;2023-02-28T15:23:25;7.37;;;5.10;;
8592;SDS011;4334;49.982;8.398;2023-02-28T15:25:52;6.90;;;4.93;;
8592;SDS011;4334;49.982;8.398;2023-02-28T15:28:20;6.10;;;4.97;;
8592;SDS011;4334;49.982;8.398;2023-02-28T15:30:53;7.33;;;5.10;;
8592;SDS011;4334;49.982;8.398;2023-02-28T15:33:23;7.53;;;5.30;;
8592;SDS011;4334;49.982;8.398;2023-02-28T15:35:51;7.17;;;5.57;;
8592;SDS011;4334;49.982;8.398;2023-02-28T15:38:29;6.73;;;5.43;;
8592;SDS011;4334;49.982;8.398;2023-02-28T15:40:56;6.17;;;5.00;;
8592;SDS011;4334;49.982;8.398;2023-02-28T15:43:26;6.77;;;5.50;;
8592;SDS011;4334;49.982;8.398;2023-02-28T15:45:55;11.07;;;5.53;;
8592;SDS011;4334;49.982;8.398;2023-02-28T15:48:28;7.40;;;5.47;;
8592;SDS011;4334;49.982;8.398;2023-02-28T15:50:56;7.47;;;5.17;;
8592;SDS011;4334;49.982;8.398;2023-02-28T15:53:28;6.17;;;5.23;;
8592;SDS011;4334;49.982;8.398;2023-02-28T15:55:58;10.87;;;5.30;;
8592;SDS011;4334;49.982;8.398;2023-02-28T15:58:27;8.70;;;5.50;;
8592;SDS011;4334;49.982;8.398;2023-02-28T16:01:04;7.27;;;5.40;;
8592;SDS011;4334;49.982;8.398;2023-02-28T16:03:44;9.33;;;5.50;;
8592;SDS011;4334;49.982;8.398;2023-02-28T16:06:22;7.80;;;5.63;;
8592;SDS011;4334;49.982;8.398;2023-02-28T16:09:08;9.10;;;5.73;;
8592;SDS011;4334;49.982;8.398;2023-02-28T16:11:37;11.37;;;5.43;;
8592;SDS011;4334;49.982;8.398;2023-02-28T16:14:08;8.33;;;5.63;;
8592;SDS011;4334;49.982;8.398;2023-02-28T16:16:41;9.27;;;5.00;;
8592;SDS011;4334;49.982;8.398;2023-02-28T16:19:11;7.77;;;5.77;;